Time;durP1;ratioP1;P1;durP2;ratioP2;P2;SDS_P1;SDS_P2;PMS_P1;PMS_P2;Temp;Humidity;BMP_temperature;BMP_pressure;BME280_temperature;BME280_humidity;BME280_pressure;Samples;Min_cycle;Max_cycle;Signal;HPM_P1;HPM_P2
2023/08/03 00:00:27;;;;;;;;;3.00;1.25;;;;;19.22;66.54;99698.91;5084754;27;45277;-47
2023/08/03 00:02:52;;;;;;;;;2.00;1.00;;;;;19.22;66.68;99693.53;5089323;27;45482;-48
2023/08/03 00:05:19;;;;;;;;;2.25;1.75;;;;;19.22;66.40;99697.06;5084893;27;45550;-47
2023/08/03 00:07:48;;;;;;;;;2.00;0.67;;;;;19.23;65.70;99704.16;5088515;27;46243;-47
2023/08/03 00:10:14;;;;;;;;;5.00;2.25;;;;;19.24;66.06;99694.19;5085356;27;45465;-50
2023/08/03 00:12:40;;;;;;;;;4.75;1.50;;;;;19.24;66.21;99692.38;5069822;27;45425;-49
2023/08/03 00:15:06;;;;;;;;;4.00;3.00;;;;;19.25;65.65;99696.72;5086538;27;45243;-47
2023/08/03 00:17:31;;;;;;;;;1.00;1.00;;;;;19.24;65.81;99704.97;5094226;27;46857;-48
2023/08/03 00:19:57;;;;;;;;;4.00;2.00;;;;;19.24;65.88;99700.44;5076117;27;72177;-49
2023/08/03 00:22:22;;;;;;;;;1.75;1.75;;;;;19.23;65.69;99706.84;5068868;27;45871;-49
2023/08/03 00:24:49;;;;;;;;;3.33;1.33;;;;;19.23;65.64;99709.53;5089637;27;45623;-47
2023/08/03 00:27:14;;;;;;;;;2.00;1.00;;;;;19.23;65.59;99719.44;5095596;27;46270;-46
2023/08/03 00:29:40;;;;;;;;;3.25;1.00;;;;;19.24;65.28;99715.75;5090007;27;45381;-46
2023/08/03 00:32:06;;;;;;;;;2.00;1.25;;;;;19.21;65.13;99716.91;5087399;27;45656;-47
2023/08/03 00:34:31;;;;;;;;;2.00;1.00;;;;;19.17;64.96;99715.56;5091984;27;46741;-50
2023/08/03 00:36:56;;;;;;;;;5.00;2.00;;;;;19.15;65.27;99729.19;5089184;27;46104;-48
2023/08/03 00:39:22;;;;;;;;;1.33;1.00;;;;;19.16;65.18;99720.13;5091548;27;51933;-48
2023/08/03 00:41:47;;;;;;;;;2.33;1.00;;;;;19.17;65.14;99726.34;5089489;27;45444;-50
2023/08/03 00:44:13;;;;;;;;;2.50;1.00;;;;;19.17;65.42;99721.78;5089231;27;46564;-46
2023/08/03 00:46:38;;;;;;;;;4.00;1.00;;;;;19.15;64.91;99723.81;5095224;27;47264;-48
2023/08/03 00:49:04;;;;;;;;;2.25;1.00;;;;;19.13;65.03;99724.97;5075285;27;45425;-46
2023/08/03 00:51:29;;;;;;;;;3.00;1.00;;;;;19.14;64.82;99716.72;5095781;27;45439;-46
2023/08/03 00:53:55;;;;;;;;;7.33;2.00;;;;;19.15;65.12;99717.56;5085091;27;46745;-46
2023/08/03 00:56:20;;;;;;;;;4.00;1.00;;;;;19.13;64.98;99719.56;5093909;27;45496;-46
2023/08/03 00:58:46;;;;;;;;;5.75;1.25;;;;;19.15;64.88;99720.25;5090917;27;70280;-47
2023/08/03 01:01:11;;;;;;;;;3.50;2.00;;;;;19.13;65.35;99708.78;5090047;27;47304;-49
2023/08/03 01:03:36;;;;;;;;;3.00;1.00;;;;;19.13;65.46;99725.81;5090356;27;65280;-46
2023/08/03 01:06:02;;;;;;;;;3.33;0.67;;;;;19.15;65.58;99723.81;5092503;27;61973;-47
2023/08/03 01:08:28;;;;;;;;;4.00;1.33;;;;;19.15;65.50;99739.97;5097944;27;47875;-47
2023/08/03 01:10:53;;;;;;;;;6.00;0.67;;;;;19.14;65.57;99723.97;5063079;27;45469;-47
2023/08/03 01:13:19;;;;;;;;;2.00;1.00;;;;;19.13;66.04;99736.59;5096331;27;45793;-48
2023/08/03 01:15:45;;;;;;;;;1.00;1.00;;;;;19.09;65.72;99750.53;5069387;27;45487;-46
2023/08/03 01:18:10;;;;;;;;;1.50;0.25;;;;;19.04;66.33;99748.31;5086411;27;63466;-50
2023/08/03 01:20:37;;;;;;;;;4.00;2.00;;;;;18.98;67.08;99765.97;5071132;27;45542;-49
2023/08/03 01:23:06;;;;;;;;;1.75;1.50;;;;;18.94;68.62;99769.97;5077166;27;45398;-47
2023/08/03 01:25:32;;;;;;;;;3.00;1.67;;;;;18.88;69.09;99770.56;5089972;27;45532;-45
2023/08/03 01:27:57;;;;;;;;;1.67;0.67;;;;;18.81;69.84;99780.25;5061424;28;45398;-45
2023/08/03 01:30:23;;;;;;;;;1.50;0.25;;;;;18.71;70.54;99771.41;5069261;28;56649;-48
2023/08/03 01:32:49;;;;;;;;;4.00;1.00;;;;;18.60;70.41;99777.88;5066667;27;45389;-46
2023/08/03 01:35:14;;;;;;;;;6.67;1.00;;;;;18.55;71.16;99790.94;5078176;27;45471;-48
2023/08/03 01:37:40;;;;;;;;;0.00;0.00;;;;;18.49;71.35;99790.56;5070391;27;45547;-46
2023/08/03 01:40:06;;;;;;;;;4.00;1.00;;;;;18.47;71.04;99795.25;5075418;27;65368;-47
2023/08/03 01:42:31;;;;;;;;;1.00;0.00;;;;;18.46;71.71;99801.66;5069991;27;45500;-46
2023/08/03 01:44:57;;;;;;;;;0.67;0.33;;;;;18.41;72.29;99795.88;5075856;28;45355;-46
2023/08/03 01:47:23;;;;;;;;;4.00;1.00;;;;;18.39;72.65;99808.63;5073212;27;45465;-48
2023/08/03 01:49:48;;;;;;;;;4.67;0.00;;;;;18.35;72.14;99799.16;5072386;27;68275;-47
2023/08/03 01:52:13;;;;;;;;;1.00;1.00;;;;;18.32;72.88;99804.84;5065721;27;55859;-47
2023/08/03 01:54:39;;;;;;;;;1.00;1.00;;;;;18.29;73.51;99805.13;5075648;28;60388;-48
2023/08/03 01:57:04;;;;;;;;;2.00;0.00;;;;;18.19;73.51;99799.81;5072161;28;61797;-46
2023/08/03 01:59:30;;;;;;;;;3.00;1.00;;;;;18.14;73.86;99807.50;5070511;28;45412;-46
2023/08/03 02:01:55;;;;;;;;;6.33;2.00;;;;;18.11;73.90;99811.34;5060875;28;66314;-46
2023/08/03 02:04:20;;;;;;;;;2.00;2.00;;;;;18.03;74.33;99808.56;5062679;28;45977;-46
2023/08/03 02:06:49;;;;;;;;;1.00;1.00;;;;;18.00;74.99;99809.69;5072108;27;60173;-46
2023/08/03 02:09:14;;;;;;;;;1.67;1.67;;;;;17.99;75.21;99809.81;5068107;28;45569;-47
2023/08/03 02:11:39;;;;;;;;;1.00;1.00;;;;;17.97;75.74;99806.47;5065219;27;66383;-51
2023/08/03 02:14:05;;;;;;;;;1.25;0.50;;;;;17.95;75.56;99817.38;5066463;28;65671;-47
2023/08/03 02:16:31;;;;;;;;;2.00;1.00;;;;;17.94;75.37;99818.34;5077301;28;45902;-49
2023/08/03 02:18:57;;;;;;;;;2.00;1.00;;;;;17.92;75.72;99820.31;5069987;28;45345;-48
2023/08/03 02:21:22;;;;;;;;;3.00;0.00;;;;;17.85;76.71;99825.44;5068136;28;50605;-47
2023/08/03 02:23:47;;;;;;;;;0.00;0.00;;;;;17.87;75.91;99822.59;5067814;27;45452;-46
2023/08/03 02:26:13;;;;;;;;;2.00;0.33;;;;;17.86;75.84;99824.44;5084076;27;45403;-46
2023/08/03 02:28:38;;;;;;;;;0.00;0.00;;;;;17.89;75.79;99828.69;5086672;27;55063;-50
2023/08/03 02:31:03;;;;;;;;;0.67;0.67;;;;;17.93;75.68;99835.50;5092525;27;68744;-50
2023/08/03 02:33:29;;;;;;;;;0.50;0.50;;;;;17.90;77.74;99830.38;5084946;27;46095;-46
2023/08/03 02:35:54;;;;;;;;;0.33;0.33;;;;;17.86;77.70;99834.38;5068349;27;45355;-48
2023/08/03 02:38:20;;;;;;;;;0.67;0.67;;;;;17.83;77.25;99840.03;5090006;27;45359;-50
2023/08/03 02:40:45;;;;;;;;;0.67;0.67;;;;;17.79;78.15;99835.94;5092396;27;45425;-48
2023/08/03 02:43:10;;;;;;;;;3.00;0.00;;;;;17.73;79.92;99836.50;5089672;27;70089;-50
2023/08/03 02:45:35;;;;;;;;;0.00;0.00;;;;;17.67;78.96;99841.47;5085885;27;67272;-46
2023/08/03 02:48:01;;;;;;;;;2.33;1.00;;;;;17.65;78.79;99840.81;5090512;27;55995;-48
2023/08/03 02:50:26;;;;;;;;;3.00;0.00;;;;;17.65;79.30;99846.19;5084225;27;62223;-46
2023/08/03 02:52:51;;;;;;;;;3.00;1.00;;;;;17.67;79.00;99849.56;5091857;27;45897;-49
2023/08/03 02:55:17;;;;;;;;;2.00;0.00;;;;;17.72;78.87;99848.25;5087854;27;71559;-48
2023/08/03 02:57:43;;;;;;;;;1.00;1.00;;;;;17.74;79.63;99859.72;5091589;27;45550;-48
2023/08/03 03:00:09;;;;;;;;;1.33;0.00;;;;;17.74;79.58;99857.88;5093663;27;45729;-49
2023/08/03 03:02:36;;;;;;;;;0.33;0.33;;;;;17.76;80.38;99857.75;5085115;27;46127;-48
2023/08/03 03:05:01;;;;;;;;;2.33;1.00;;;;;17.74;79.42;99859.72;5085711;27;45534;-46
2023/08/03 03:07:27;;;;;;;;;0.00;0.00;;;;;17.74;79.04;99851.66;5088547;27;45496;-45
2023/08/03 03:09:52;;;;;;;;;1.25;0.00;;;;;17.73;79.29;99849.97;5092127;27;45592;-46
2023/08/03 03:12:18;;;;;;;;;1.00;1.00;;;;;17.66;80.22;99855.94;5093804;27;46197;-46
2023/08/03 03:14:43;;;;;;;;;1.00;1.00;;;;;17.62;79.95;99854.50;5092735;27;47971;-47
2023/08/03 03:17:08;;;;;;;;;0.00;0.00;;;;;17.58;80.78;99857.66;5095973;27;45444;-46
2023/08/03 03:19:34;;;;;;;;;0.00;0.00;;;;;17.56;80.71;99855.13;5085052;27;62777;-46
2023/08/03 03:21:59;;;;;;;;;0.00;0.00;;;;;17.56;80.54;99852.44;5085549;27;46118;-45
2023/08/03 03:24:25;;;;;;;;;1.00;1.00;;;;;17.57;80.19;99854.09;5091464;27;62076;-45
2023/08/03 03:26:50;;;;;;;;;0.00;0.00;;;;;17.57;80.09;99859.47;5081461;27;45544;-48
2023/08/03 03:29:15;;;;;;;;;0.00;0.00;;;;;17.60;80.46;99867.28;5088138;27;45556;-50
2023/08/03 03:31:42;;;;;;;;;2.00;1.00;;;;;17.61;80.87;99870.78;5090172;27;46108;-48
2023/08/03 03:34:07;;;;;;;;;0.00;0.00;;;;;17.62;80.52;99881.41;5057138;27;45420;-47
2023/08/03 03:36:33;;;;;;;;;0.00;0.00;;;;;17.62;80.62;99873.34;5085044;27;45488;-46
2023/08/03 03:38:58;;;;;;;;;1.00;1.00;;;;;17.58;80.91;99874.63;5090855;27;45421;-46
2023/08/03 03:41:24;;;;;;;;;0.00;0.00;;;;;17.60;80.51;99874.47;5089939;27;46701;-46
2023/08/03 03:43:49;;;;;;;;;0.00;0.00;;;;;17.61;80.67;99878.88;5076724;27;55340;-47
2023/08/03 03:46:14;;;;;;;;;1.00;0.50;;;;;17.61;81.25;99874.34;5089407;27;45634;-46
2023/08/03 03:48:39;;;;;;;;;2.00;1.00;;;;;17.62;80.98;99873.34;5090451;27;67297;-46
2023/08/03 03:51:05;;;;;;;;;2.00;1.00;;;;;17.64;81.05;99884.81;5094456;27;45501;-46
2023/08/03 03:53:30;;;;;;;;;0.33;0.33;;;;;17.66;80.76;99882.84;5094379;27;45476;-47
2023/08/03 03:55:55;;;;;;;;;0.00;0.00;;;;;17.68;80.70;99888.91;5082079;27;46751;-46
2023/08/03 03:58:21;;;;;;;;;1.33;0.67;;;;;17.73;80.29;99888.47;5087188;27;45456;-46
2023/08/03 04:00:46;;;;;;;;;0.00;0.00;;;;;17.76;80.18;99887.34;5091657;27;48077;-46
2023/08/03 04:03:11;;;;;;;;;0.00;0.00;;;;;17.77;80.53;99884.50;5085287;27;45520;-46
2023/08/03 04:05:37;;;;;;;;;0.00;0.00;;;;;17.76;80.24;99893.56;5087635;27;56539;-46
2023/08/03 04:08:04;;;;;;;;;0.00;0.00;;;;;17.74;80.30;99898.22;5085837;27;45543;-48
2023/08/03 04:10:29;;;;;;;;;0.75;0.00;;;;;17.73;80.07;99901.06;5088631;27;45362;-48
2023/08/03 04:12:55;;;;;;;;;1.00;1.00;;;;;17.73;80.11;99909.13;5066347;27;45634;-46
2023/08/03 04:15:20;;;;;;;;;2.00;0.00;;;;;17.69;80.39;99903.19;5081001;27;66472;-46
2023/08/03 04:17:48;;;;;;;;;2.00;1.00;;;;;17.67;80.77;99905.19;5085222;27;69069;-45
2023/08/03 04:20:14;;;;;;;;;0.00;0.00;;;;;17.65;81.32;99897.25;5084907;27;46341;-48
2023/08/03 04:22:39;;;;;;;;;1.00;1.00;;;;;17.70;80.41;99899.50;5086788;27;45454;-48
2023/08/03 04:25:05;;;;;;;;;0.00;0.00;;;;;17.69;80.76;99904.03;5083380;27;64321;-46
2023/08/03 04:27:30;;;;;;;;;1.00;1.00;;;;;17.73;80.89;99898.38;5067899;27;45496;-46
2023/08/03 04:29:55;;;;;;;;;1.00;0.00;;;;;17.75;80.88;99907.16;5085804;27;69662;-48
2023/08/03 04:32:21;;;;;;;;;1.75;0.25;;;;;17.72;81.04;99905.59;5083581;27;62967;-47
2023/08/03 04:34:46;;;;;;;;;3.50;1.00;;;;;17.77;80.90;99905.16;5087694;27;45614;-46
2023/08/03 04:37:11;;;;;;;;;3.50;1.00;;;;;17.79;80.38;99904.00;5088324;27;63167;-45
2023/08/03 04:39:37;;;;;;;;;0.00;0.00;;;;;17.81;80.74;99906.56;5088217;27;46202;-47
2023/08/03 04:42:02;;;;;;;;;1.75;1.00;;;;;17.83;80.15;99910.81;5090754;27;45438;-47
2023/08/03 04:44:28;;;;;;;;;4.00;1.00;;;;;17.86;80.24;99905.13;5094124;27;45678;-47
2023/08/03 04:46:53;;;;;;;;;1.00;1.00;;;;;17.89;80.43;99913.91;5076370;27;45461;-47
2023/08/03 04:49:18;;;;;;;;;1.00;1.00;;;;;17.90;80.04;99910.22;5085476;27;68464;-46
2023/08/03 04:51:44;;;;;;;;;1.00;0.00;;;;;17.89;80.38;99919.31;5087932;27;58059;-45
2023/08/03 04:54:11;;;;;;;;;1.00;0.50;;;;;17.88;80.42;99922.97;5082368;27;49792;-48
2023/08/03 04:56:36;;;;;;;;;0.50;0.50;;;;;17.86;80.29;99915.06;5087581;27;45403;-46
2023/08/03 04:59:02;;;;;;;;;2.75;0.00;;;;;17.84;80.34;99912.50;5093711;27;45303;-47
2023/08/03 05:01:27;;;;;;;;;2.00;1.25;;;;;17.87;80.65;99911.34;5087254;27;45419;-47
2023/08/03 05:03:53;;;;;;;;;2.33;0.00;;;;;17.91;80.22;99914.59;5084238;27;45339;-46
2023/08/03 05:06:18;;;;;;;;;0.50;0.50;;;;;17.93;80.16;99916.19;5090114;27;70149;-47
2023/08/03 05:08:43;;;;;;;;;0.00;0.00;;;;;17.92;80.96;99927.91;5081177;27;64801;-46
2023/08/03 05:11:09;;;;;;;;;0.50;0.50;;;;;17.86;80.49;99925.81;5089081;27;47479;-49
2023/08/03 05:13:34;;;;;;;;;2.00;1.00;;;;;17.85;81.31;99934.88;5094305;27;45888;-46
2023/08/03 05:15:59;;;;;;;;;2.25;0.50;;;;;17.86;81.56;99933.88;5061072;27;45509;-47
2023/08/03 05:18:25;;;;;;;;;1.00;1.00;;;;;17.91;81.59;99939.66;5069368;27;47450;-47
2023/08/03 05:20:50;;;;;;;;;4.75;1.00;;;;;17.96;81.51;99944.63;5093800;27;45402;-49
2023/08/03 05:23:16;;;;;;;;;2.67;1.00;;;;;17.99;81.06;99939.81;5071383;27;62315;-47
2023/08/03 05:25:41;;;;;;;;;1.00;1.00;;;;;18.00;81.07;99949.59;5069619;27;45331;-48
2023/08/03 05:28:06;;;;;;;;;1.33;1.00;;;;;18.01;80.44;99942.38;5088781;27;45476;-47
2023/08/03 05:30:33;;;;;;;;;1.00;1.00;;;;;18.01;80.50;99953.13;5074019;27;45510;-46
2023/08/03 05:33:01;;;;;;;;;2.00;0.00;;;;;17.99;80.83;99947.03;5091673;27;45449;-48
2023/08/03 05:35:26;;;;;;;;;1.25;0.75;;;;;18.01;80.49;99958.50;5068988;27;45406;-47
2023/08/03 05:37:53;;;;;;;;;0.00;0.00;;;;;18.06;80.54;99958.09;5093091;27;72066;-47
2023/08/03 05:40:18;;;;;;;;;2.00;1.00;;;;;18.06;79.75;99958.09;5087828;27;45455;-49
2023/08/03 05:42:43;;;;;;;;;2.75;1.25;;;;;18.05;80.08;99953.69;5095993;27;45403;-46
2023/08/03 05:45:14;;;;;;;;;1.00;1.00;;;;;18.07;80.41;99962.44;5074217;27;45429;-46
2023/08/03 05:47:40;;;;;;;;;1.00;1.00;;;;;18.07;79.68;99968.69;5072293;27;46299;-46
2023/08/03 05:50:12;;;;;;;;;2.00;0.00;;;;;18.09;79.51;99964.00;5070170;27;45743;-48
2023/08/03 05:52:37;;;;;;;;;0.25;0.25;;;;;18.11;80.47;99977.34;5093659;27;45386;-50
2023/08/03 05:55:03;;;;;;;;;2.25;2.00;;;;;18.11;80.03;99970.09;5084276;27;45297;-48
2023/08/03 05:57:29;;;;;;;;;4.00;1.00;;;;;18.11;79.71;99978.16;5082268;27;46322;-46
2023/08/03 05:59:54;;;;;;;;;6.50;1.00;;;;;18.09;80.42;99990.91;5075916;27;45445;-56
2023/08/03 06:02:31;;;;;;;;;2.00;1.00;;;;;18.07;80.48;99976.78;5087272;27;45518;-57
2023/08/03 06:04:56;;;;;;;;;1.50;0.00;;;;;18.13;80.76;99983.41;5065677;27;47147;-51
2023/08/03 06:07:21;;;;;;;;;2.00;2.00;;;;;18.16;80.52;99983.97;5083313;27;69049;-47
2023/08/03 06:09:49;;;;;;;;;1.00;1.00;;;;;18.26;80.19;99983.91;5092979;27;45556;-48
2023/08/03 06:12:15;;;;;;;;;1.00;1.00;;;;;18.33;79.59;99987.72;5084348;27;45664;-54
2023/08/03 06:14:40;;;;;;;;;4.67;2.00;;;;;18.40;79.63;99998.75;5087888;27;45680;-51
2023/08/03 06:17:05;;;;;;;;;1.67;1.67;;;;;18.46;79.35;99987.41;5086557;27;73079;-49
2023/08/03 06:19:31;;;;;;;;;1.00;1.00;;;;;18.55;79.01;99990.19;5069379;27;68720;-52
2023/08/03 06:22:02;;;;;;;;;5.00;1.50;;;;;18.61;78.30;99997.69;5092098;27;69518;-56
2023/08/03 06:24:27;;;;;;;;;2.00;1.00;;;;;18.60;77.92;100001.38;5077766;27;45533;-45
2023/08/03 06:26:52;;;;;;;;;2.25;2.00;;;;;18.61;78.27;100001.22;5088808;27;72338;-49
2023/08/03 06:29:18;;;;;;;;;1.00;1.00;;;;;18.61;78.28;99995.84;5065318;27;45463;-46
2023/08/03 06:31:43;;;;;;;;;1.25;1.25;;;;;18.66;77.68;100000.78;5091338;27;45567;-52
2023/08/03 06:34:12;;;;;;;;;4.50;3.25;;;;;18.71;78.21;100003.88;5093250;27;45548;-45
2023/08/03 06:36:41;;;;;;;;;1.00;1.00;;;;;18.72;77.06;100004.72;5074757;27;45445;-54
2023/08/03 06:39:06;;;;;;;;;1.00;1.00;;;;;18.71;77.12;100005.72;5092117;27;45449;-46
2023/08/03 06:41:32;;;;;;;;;1.00;1.00;;;;;18.72;77.80;100013.69;5088143;27;66157;-49
2023/08/03 06:43:57;;;;;;;;;3.50;1.00;;;;;18.76;77.42;100023.16;5089800;27;58528;-57
2023/08/03 06:46:24;;;;;;;;;1.00;1.00;;;;;18.76;79.61;100028.53;5080744;27;45344;-53
2023/08/03 06:48:51;;;;;;;;;3.00;1.00;;;;;18.74;78.80;100027.81;5073841;28;45440;-45
2023/08/03 06:51:16;;;;;;;;;3.00;3.00;;;;;18.75;78.90;100043.00;5087484;27;45611;-51
2023/08/03 06:53:42;;;;;;;;;2.00;1.25;;;;;18.78;79.31;100040.00;5088196;27;45645;-51
2023/08/03 06:56:07;;;;;;;;;2.50;2.00;;;;;18.78;79.24;100047.25;5092625;27;46216;-55
2023/08/03 06:58:32;;;;;;;;;2.50;2.50;;;;;18.77;79.62;100059.00;5091682;27;45441;-44
2023/08/03 07:00:58;;;;;;;;;1.00;1.00;;;;;18.80;79.64;100053.34;5096166;27;45382;-50
2023/08/03 07:03:23;;;;;;;;;4.50;2.00;;;;;18.82;79.45;100057.56;5086947;27;45854;-48
2023/08/03 07:05:49;;;;;;;;;1.00;1.00;;;;;18.88;78.83;100056.13;5087493;27;70505;-47
2023/08/03 07:08:14;;;;;;;;;4.00;4.00;;;;;18.90;78.13;100062.22;5083637;27;66964;-46
2023/08/03 07:10:40;;;;;;;;;2.00;2.00;;;;;18.89;78.86;100062.34;5092363;27;45390;-49
2023/08/03 07:13:05;;;;;;;;;1.00;1.00;;;;;18.92;78.28;100062.09;5079895;27;45348;-50
2023/08/03 07:15:33;;;;;;;;;1.00;1.00;;;;;18.95;78.54;100062.63;5083550;27;46210;-45
2023/08/03 07:18:06;;;;;;;;;1.50;1.00;;;;;18.97;78.13;100063.34;5083178;27;45473;-49
2023/08/03 07:20:33;;;;;;;;;5.00;1.00;;;;;18.97;78.47;100071.44;5097097;27;45794;-50
2023/08/03 07:22:58;;;;;;;;;2.50;1.50;;;;;18.96;78.99;100075.13;5089422;27;46714;-46
2023/08/03 07:25:24;;;;;;;;;1.00;1.00;;;;;18.99;78.52;100090.13;5096835;27;46106;-51
2023/08/03 07:27:51;;;;;;;;;1.50;1.50;;;;;18.96;78.99;100088.59;5089957;27;45714;-46
2023/08/03 07:30:16;;;;;;;;;3.00;2.00;;;;;18.99;79.12;100084.75;5090829;27;45469;-49
2023/08/03 07:32:41;;;;;;;;;3.50;2.00;;;;;18.98;79.61;100086.59;5085473;27;46410;-51
2023/08/03 07:35:07;;;;;;;;;1.00;1.00;;;;;19.02;79.55;100089.84;5083995;27;46203;-52
2023/08/03 07:37:32;;;;;;;;;1.25;1.00;;;;;19.08;78.46;100093.78;5075819;27;45590;-44
2023/08/03 07:39:58;;;;;;;;;2.00;2.00;;;;;19.08;78.50;100088.41;5085276;27;45389;-47
2023/08/03 07:42:23;;;;;;;;;5.00;2.00;;;;;19.11;78.58;100094.34;5086894;27;68443;-48
2023/08/03 07:44:52;;;;;;;;;3.00;2.75;;;;;19.17;78.60;100100.97;5099341;27;46049;-57
2023/08/03 07:47:17;;;;;;;;;3.00;1.00;;;;;19.15;77.42;100102.97;5092235;27;45426;-49
2023/08/03 07:49:43;;;;;;;;;4.00;1.00;;;;;19.07;78.02;100097.47;5089432;27;45716;-53
2023/08/03 07:52:08;;;;;;;;;1.25;1.25;;;;;18.99;77.70;100109.88;5081267;27;45532;-45
2023/08/03 07:54:34;;;;;;;;;4.00;3.00;;;;;18.94;78.38;100111.28;5081770;27;45741;-50
2023/08/03 07:56:59;;;;;;;;;2.00;2.00;;;;;18.95;78.16;100116.53;5088760;27;66541;-47
2023/08/03 07:59:24;;;;;;;;;0.50;0.50;;;;;19.05;78.62;100121.06;5103709;27;45443;-50
2023/08/03 08:01:50;;;;;;;;;5.50;3.00;;;;;19.09;78.14;100120.59;5088220;27;45584;-46
2023/08/03 08:04:17;;;;;;;;;1.25;1.25;;;;;19.17;78.19;100117.16;5082353;27;56387;-53
2023/08/03 08:06:42;;;;;;;;;3.00;1.75;;;;;19.29;77.94;100131.28;5083325;27;45557;-51
2023/08/03 08:09:07;;;;;;;;;3.50;1.00;;;;;19.61;77.87;100127.28;5072701;27;61699;-47
2023/08/03 08:11:33;;;;;;;;;3.00;1.00;;;;;19.91;76.04;100138.75;5083493;27;46414;-51
2023/08/03 08:13:59;;;;;;;;;3.00;1.00;;;;;19.79;74.97;100133.53;5086101;27;69722;-57
2023/08/03 08:16:25;;;;;;;;;1.50;1.50;;;;;19.69;76.68;100134.63;5080963;27;46950;-57
2023/08/03 08:18:50;;;;;;;;;2.50;0.50;;;;;19.62;76.52;100137.91;5084787;27;45767;-58
2023/08/03 08:21:16;;;;;;;;;2.00;2.00;;;;;19.70;76.65;100149.78;5089244;27;45465;-52
2023/08/03 08:23:41;;;;;;;;;2.00;2.00;;;;;19.76;76.25;100141.91;5075637;27;46001;-51
2023/08/03 08:26:14;;;;;;;;;4.25;2.00;;;;;19.85;76.02;100153.69;5084559;27;45734;-53
2023/08/03 08:28:44;;;;;;;;;3.00;2.00;;;;;19.94;74.96;100155.47;5082655;27;45454;-52
2023/08/03 08:31:09;;;;;;;;;1.50;1.50;;;;;19.94;75.06;100149.22;5093737;27;45406;-57
2023/08/03 08:33:35;;;;;;;;;2.00;2.00;;;;;19.92;74.83;100160.19;5088875;27;46104;-56
2023/08/03 08:36:00;;;;;;;;;3.25;2.00;;;;;19.98;74.47;100170.34;5084024;27;45478;-57
2023/08/03 08:38:26;;;;;;;;;2.00;2.00;;;;;19.96;74.71;100169.66;5083413;27;45367;-52
2023/08/03 08:40:51;;;;;;;;;3.75;2.00;;;;;19.91;74.88;100165.75;5090820;27;69294;-46
2023/08/03 08:43:20;;;;;;;;;3.00;1.00;;;;;19.95;75.11;100162.56;5094350;27;46927;-51
2023/08/03 08:45:45;;;;;;;;;1.75;1.75;;;;;19.97;74.18;100168.66;5076410;27;45493;-57
2023/08/03 08:48:11;;;;;;;;;3.00;2.00;;;;;19.92;74.44;100165.56;5089553;27;45552;-46
2023/08/03 08:50:36;;;;;;;;;1.67;1.67;;;;;19.97;74.49;100173.19;5089043;27;45488;-46
2023/08/03 08:53:01;;;;;;;;;2.00;2.00;;;;;20.00;74.38;100173.75;5097523;27;63320;-49
2023/08/03 08:55:28;;;;;;;;;2.00;2.00;;;;;20.23;74.55;100178.66;5094344;27;45433;-47
2023/08/03 08:57:54;;;;;;;;;1.50;0.25;;;;;20.47;72.88;100178.06;5055509;27;45430;-45
2023/08/03 09:00:21;;;;;;;;;2.00;1.00;;;;;20.85;72.29;100187.84;5085996;27;45386;-49
2023/08/03 09:02:47;;;;;;;;;4.00;2.00;;;;;21.41;70.23;100180.19;5090758;27;45607;-49
2023/08/03 09:05:13;;;;;;;;;1.75;1.25;;;;;21.57;70.33;100171.31;5085099;27;45248;-57
2023/08/03 09:07:38;;;;;;;;;3.33;2.00;;;;;21.53;68.92;100195.09;5090577;27;45532;-55
2023/08/03 09:10:04;;;;;;;;;2.00;2.00;;;;;21.35;69.51;100191.66;5091663;27;45576;-50
2023/08/03 09:12:30;;;;;;;;;3.50;1.75;;;;;21.12;69.66;100208.44;5091699;27;46299;-49
2023/08/03 09:14:55;;;;;;;;;2.25;1.00;;;;;20.96;70.28;100203.75;5069844;27;46527;-45
2023/08/03 09:17:24;;;;;;;;;1.25;1.25;;;;;20.81;69.35;100206.22;5094624;27;46425;-56
2023/08/03 09:19:53;;;;;;;;;4.50;2.00;;;;;20.70;70.64;100212.69;5094900;27;45630;-51
2023/08/03 09:22:20;;;;;;;;;2.67;1.00;;;;;20.82;71.18;100213.31;5089101;27;46807;-46
2023/08/03 09:24:48;;;;;;;;;1.25;1.25;;;;;21.11;69.90;100210.28;5091165;27;45528;-51
2023/08/03 09:27:17;;;;;;;;;3.50;2.00;;;;;21.49;69.64;100209.97;5085200;27;45479;-51
2023/08/03 09:29:43;;;;;;;;;1.00;1.00;;;;;21.91;69.08;100222.66;5088612;27;45591;-55
2023/08/03 09:32:09;;;;;;;;;3.75;1.25;;;;;22.29;68.07;100214.13;5087550;27;46492;-54
2023/08/03 09:34:44;;;;;;;;;1.00;1.00;;;;;22.46;67.19;100220.44;5077293;27;45394;-48
2023/08/03 09:37:11;;;;;;;;;3.75;2.00;;;;;22.67;66.69;100213.66;5073945;27;45500;-51
2023/08/03 09:39:38;;;;;;;;;1.00;1.00;;;;;22.98;67.21;100208.38;5095742;27;45508;-53
2023/08/03 09:42:09;;;;;;;;;2.00;2.00;;;;;23.40;66.44;100214.56;5088127;27;46055;-47
2023/08/03 09:44:36;;;;;;;;;1.75;1.50;;;;;25.97;57.85;100211.41;5093375;27;45419;-59
2023/08/03 09:47:03;;;;;;;;;3.00;2.50;;;;;28.72;54.80;100219.41;5085030;27;45476;-56
2023/08/03 09:49:28;;;;;;;;;1.25;1.25;;;;;29.98;52.63;100217.44;5089650;27;45545;-57
2023/08/03 09:51:57;;;;;;;;;2.00;1.00;;;;;31.16;45.42;100206.06;5087489;27;45512;-55
2023/08/03 09:54:45;;;;;;;;;3.25;1.50;;;;;32.58;40.27;100214.16;5080824;27;45387;-51
2023/08/03 09:57:13;;;;;;;;;7.50;1.50;;;;;33.90;41.85;100216.63;5064897;27;45338;-52
2023/08/03 09:59:43;;;;;;;;;1.25;1.00;;;;;33.74;38.21;100224.53;5097261;27;45457;-56
2023/08/03 10:02:11;;;;;;;;;1.00;1.00;;;;;32.63;40.08;100214.28;5069002;27;45431;-46
2023/08/03 10:04:42;;;;;;;;;1.00;1.00;;;;;31.37;42.01;100224.00;5095729;27;45615;-46
2023/08/03 10:07:10;;;;;;;;;1.25;1.00;;;;;30.28;41.81;100216.84;5072706;27;45749;-48
2023/08/03 10:09:43;;;;;;;;;1.00;1.00;;;;;29.20;43.19;100232.00;5078066;27;45655;-50
2023/08/03 10:12:12;;;;;;;;;2.00;2.00;;;;;28.35;44.12;100241.63;5094950;27;47318;-57
2023/08/03 10:14:41;;;;;;;;;1.40;1.20;;;;;27.53;44.40;100227.03;5069412;27;45361;-48
2023/08/03 10:17:08;;;;;;;;;1.50;1.50;;;;;26.71;46.43;100237.53;5088684;27;45572;-46
2023/08/03 10:19:33;;;;;;;;;6.00;2.50;;;;;26.16;48.28;100243.50;5066966;27;45362;-55
2023/08/03 10:21:59;;;;;;;;;3.50;1.00;;;;;25.55;49.40;100249.22;5073388;27;46056;-49
2023/08/03 10:24:25;;;;;;;;;2.00;2.00;;;;;24.96;49.97;100256.25;5086083;27;72300;-47
2023/08/03 10:26:53;;;;;;;;;1.25;1.25;;;;;24.39;51.10;100252.97;5087928;27;45744;-48
2023/08/03 10:29:49;;;;;;;;;1.50;1.00;;;;;23.79;52.46;100262.59;5090571;27;45632;-46
2023/08/03 10:32:18;;;;;;;;;1.75;1.50;;;;;23.10;54.87;100261.25;5087897;27;45431;-57
2023/08/03 10:34:44;;;;;;;;;0.75;0.00;;;;;22.77;55.21;100268.53;5071780;27;45705;-58
2023/08/03 10:37:12;;;;;;;;;2.00;1.50;;;;;22.54;56.22;100271.94;5086011;27;61724;-47
2023/08/03 10:39:46;;;;;;;;;3.75;1.50;;;;;22.31;57.45;100266.28;5074471;27;45390;-49
2023/08/03 10:42:23;;;;;;;;;2.50;1.25;;;;;22.16;57.88;100273.34;5090963;27;46378;-52
2023/08/03 10:44:49;;;;;;;;;1.00;1.00;;;;;21.97;58.69;100287.00;5096792;27;45661;-48
2023/08/03 10:47:24;;;;;;;;;2.00;1.25;;;;;21.85;58.90;100285.59;5081665;27;45333;-46
2023/08/03 10:49:50;;;;;;;;;4.00;4.00;;;;;21.76;59.05;100287.41;5095139;27;45508;-51
2023/08/03 10:52:17;;;;;;;;;1.50;1.50;;;;;21.73;59.42;100285.03;5079806;27;46693;-49
2023/08/03 10:54:43;;;;;;;;;3.50;3.00;;;;;21.76;60.41;100287.41;5085352;27;45683;-50
2023/08/03 10:57:14;;;;;;;;;2.00;2.00;;;;;21.88;60.61;100282.56;5093462;27;45441;-51
2023/08/03 10:59:41;;;;;;;;;1.00;1.00;;;;;21.98;60.08;100290.56;5084798;27;45635;-51
2023/08/03 11:02:21;;;;;;;;;1.00;1.00;;;;;22.08;60.10;100290.41;5089781;27;46205;-54
2023/08/03 11:04:58;;;;;;;;;1.00;1.00;;;;;22.17;59.96;100294.84;5068754;27;45441;-47
2023/08/03 11:07:30;;;;;;;;;4.00;1.50;;;;;22.34;59.77;100303.03;5091453;27;45537;-52
2023/08/03 11:09:56;;;;;;;;;4.00;4.00;;;;;22.37;59.34;100294.59;5091331;27;45354;-49
2023/08/03 11:12:22;;;;;;;;;1.75;1.75;;;;;22.42;59.33;100303.06;5086824;27;46750;-49
2023/08/03 11:14:50;;;;;;;;;1.00;1.00;;;;;22.48;58.96;100302.41;5084524;27;45409;-48
2023/08/03 11:17:18;;;;;;;;;1.25;0.25;;;;;22.52;59.13;100294.78;5086561;27;45803;-46
2023/08/03 11:19:44;;;;;;;;;1.50;1.50;;;;;22.52;59.31;100297.50;5086755;27;45899;-46
2023/08/03 11:22:11;;;;;;;;;4.00;2.25;;;;;22.47;59.23;100306.13;5090265;27;46921;-48
2023/08/03 11:24:36;;;;;;;;;3.50;2.25;;;;;22.48;59.46;100306.97;5085539;27;45477;-47